Time;durP1;ratioP1;P1;durP2;ratioP2;P2;SDS_P1;SDS_P2;PMS_P1;PMS_P2;Temp;Humidity;BMP_temperature;BMP_pressure;BME280_temperature;BME280_humidity;BME280_pressure;Samples;Min_cycle;Max_cycle;Signal;HPM_P1;HPM_P2
2022/07/22 00:04:28;;;;;;;1.00;0.90;;;;;;;19.38;100.00;101737.63;20968524;28;20425;-75
2022/07/22 00:14:30;;;;;;;1.10;1.00;;;;;;;19.42;100.00;101739.09;20957905;28;20041;-75
2022/07/22 00:24:32;;;;;;;1.08;0.90;;;;;;;19.45;100.00;101748.78;20948279;28;20053;-75
2022/07/22 00:34:33;;;;;;;1.10;1.00;;;;;;;19.45;100.00;101754.19;20947763;28;20397;-75
2022/07/22 00:44:35;;;;;;;1.00;0.70;;;;;;;19.44;100.00;101752.47;20964865;28;20459;-75
2022/07/22 00:54:40;;;;;;;0.70;0.70;;;;;;;19.44;100.00;101752.47;20963939;28;20124;-75
2022/07/22 01:04:42;;;;;;;1.27;1.10;;;;;;;19.42;100.00;101752.59;20950949;28;20041;-75
2022/07/22 01:14:47;;;;;;;0.80;0.80;;;;;;;19.01;100.00;101675.88;20948397;28;20519;-75
2022/07/22 01:24:48;;;;;;;1.02;0.80;;;;;;;19.42;100.00;101739.09;20945549;28;20044;-75
2022/07/22 01:34:50;;;;;;;0.88;0.88;;;;;;;19.40;100.00;101741.94;20979910;28;20404;-75
2022/07/22 01:44:53;;;;;;;1.50;1.17;;;;;;;19.40;100.00;101744.63;20959442;28;20044;-75
2022/07/22 01:54:54;;;;;;;2.35;0.85;;;;;;;19.39;100.00;101744.75;20976154;28;20047;-75
2022/07/22 02:04:56;;;;;;;1.52;0.85;;;;;;;19.39;100.00;101747.44;20975816;28;20044;-75
2022/07/22 02:14:58;;;;;;;1.45;1.00;;;;;;;19.39;100.00;101744.75;20960002;28;20048;-75
2022/07/22 02:25:02;;;;;;;2.80;1.00;;;;;;;19.38;100.00;101726.81;20874702;28;20098;-75
2022/07/22 02:35:05;;;;;;;1.85;0.95;;;;;;;19.24;100.00;101718.03;20874880;28;20796;-75
2022/07/22 02:45:08;;;;;;;0.90;0.80;;;;;;;19.37;100.00;101738.59;20971032;28;20041;-75
2022/07/22 02:55:10;;;;;;;0.60;0.60;;;;;;;19.37;100.00;101742.19;20971878;28;20471;-75
2022/07/22 03:05:12;;;;;;;2.42;0.65;;;;;;;19.31;100.00;101731.00;20881526;28;20671;-75
2022/07/22 03:15:22;;;;;;;1.15;0.80;;;;;;;19.34;100.00;101738.88;20798966;28;20510;-76
2022/07/22 03:25:24;;;;;;;3.63;1.33;;;;;;;19.37;100.00;101744.00;20874260;28;20090;-76
2022/07/22 03:35:26;;;;;;;2.78;0.98;;;;;;;19.39;100.00;101747.44;20840969;28;20069;-75
2022/07/22 03:45:27;;;;;;;1.38;0.93;;;;;;;19.41;100.00;101742.78;20841256;28;20171;-75
2022/07/22 03:55:31;;;;;;;1.42;0.88;;;;;;;19.42;100.00;101753.47;20828048;28;20057;-75
2022/07/22 04:05:33;;;;;;;2.58;0.90;;;;;;;19.42;100.00;101761.56;20932483;28;20037;-76
2022/07/22 04:15:35;;;;;;;1.40;0.80;;;;;;;19.44;100.00;101763.28;20963514;28;20044;-76
2022/07/22 04:25:37;;;;;;;1.08;0.70;;;;;;;19.39;100.00;101744.75;20960038;28;20044;-76
2022/07/22 04:35:39;;;;;;;1.98;0.90;;;;;;;19.36;100.00;101755.78;20944149;28;20131;-75
2022/07/22 04:45:48;;;;;;;2.85;0.90;;;;;;;19.31;100.00;101733.72;20961557;28;20094;-76
2022/07/22 04:55:51;;;;;;;1.10;0.77;;;;;;;19.32;100.00;101730.91;20939988;28;20135;-76
2022/07/22 05:05:52;;;;;;;2.20;0.73;;;;;;;19.44;100.00;101756.03;20872741;28;20095;-76
2022/07/22 05:16:03;;;;;;;1.73;0.80;;;;;;;19.45;100.00;101748.78;20875059;28;20048;-75
2022/07/22 05:26:09;;;;;;;3.58;1.05;;;;;;;19.34;100.00;101725.38;20874613;28;20049;-76
2022/07/22 05:36:11;;;;;;;1.10;0.70;;;;;;;19.44;100.00;101742.50;20871966;28;20128;-76
2022/07/22 05:46:18;;;;;;;1.80;0.95;;;;;;;19.27;100.00;101733.97;20842961;28;20052;-75
2022/07/22 05:56:21;;;;;;;1.13;0.73;;;;;;;19.40;100.00;101762.66;20845522;28;20045;-75
2022/07/22 06:06:23;;;;;;;1.35;0.98;;;;;;;19.43;100.00;101778.59;20849343;28;20065;-74
2022/07/22 06:16:25;;;;;;;2.10;1.02;;;;;;;19.41;100.00;101770.66;20868675;28;20098;-74
2022/07/22 06:26:31;;;;;;;0.80;0.80;;;;;;;19.27;100.00;101747.47;20802269;28;20464;-74
2022/07/22 06:36:34;;;;;;;1.20;0.60;;;;;;;19.41;100.00;101785.97;20826124;28;20060;-74
2022/07/22 06:46:35;;;;;;;0.75;0.70;;;;;;;19.13;100.00;101736.94;20749076;28;20042;-74
2022/07/22 06:56:39;;;;;;;0.88;0.80;;;;;;;19.39;100.00;101778.03;20786632;28;20050;-74
2022/07/22 07:06:44;;;;;;;;;;;;;;;19.38;100.00;101772.72;20798329;28;20120;-74
2022/07/22 07:17:08;;;;;;;1.92;0.90;;;;;;;19.36;100.00;101772.00;20856412;28;19928;-74
2022/07/22 07:27:12;;;;;;;1.15;0.75;;;;;;;19.34;100.00;101774.84;20846828;28;20071;-74
2022/07/22 07:37:17;;;;;;;2.17;0.90;;;;;;;19.33;100.00;101767.72;20858847;28;20056;-74
2022/07/22 07:47:20;;;;;;;0.93;0.70;;;;;;;19.24;100.00;101753.13;20864883;28;20055;-74
2022/07/22 07:57:23;;;;;;;2.17;0.90;;;;;;;19.29;100.00;101766.25;20802667;28;20053;-74
2022/07/22 08:07:26;;;;;;;3.42;0.90;;;;;;;19.33;100.00;101775.81;20829107;28;20871;-74
2022/07/22 08:17:28;;;;;;;0.70;0.63;;;;;;;19.20;100.00;101754.34;20755330;28;20045;-74
2022/07/22 08:27:30;;;;;;;1.55;0.73;;;;;;;19.27;100.00;101765.53;20847278;28;20125;-74
2022/07/22 08:37:32;;;;;;;0.82;0.73;;;;;;;19.31;100.00;101774.22;20810260;28;20064;-74
2022/07/22 08:47:34;;;;;;;0.77;0.70;;;;;;;19.32;100.00;101775.94;20794830;28;20422;-74
2022/07/22 08:58:08;;;;;;;2.97;0.70;;;;;;;19.24;99.82;101774.72;20760866;28;20104;-74
2022/07/22 09:08:10;;;;;;;2.05;0.90;;;;;;;19.30;99.88;101788.69;20818342;28;20045;-75
2022/07/22 09:18:24;;;;;;;1.57;0.87;;;;;;;19.29;99.75;101787.84;20753892;28;20068;-75
2022/07/22 09:28:56;;;;;;;0.95;0.80;;;;;;;19.24;99.27;101774.72;20792672;28;20061;-75
2022/07/22 09:39:32;;;;;;;1.73;0.70;;;;;;;19.29;99.25;101782.44;20861540;28;20127;-75
2022/07/22 09:49:38;;;;;;;1.23;0.70;;;;;;;19.29;99.12;101782.44;20865090;28;20053;-75
2022/07/22 09:59:59;;;;;;;0.95;0.80;;;;;;;19.21;99.23;101785.75;20877852;28;20460;-75
2022/07/22 10:10:17;;;;;;;1.60;0.70;;;;;;;19.09;98.90;101748.97;20876636;28;20052;-75
2022/07/22 10:20:22;;;;;;;1.65;1.00;;;;;;;19.28;98.83;101776.19;20874851;28;20041;-75
2022/07/22 10:30:29;;;;;;;1.00;0.80;;;;;;;19.28;98.59;101765.38;20883937;28;20592;-75
2022/07/22 10:40:45;;;;;;;1.02;0.77;;;;;;;19.27;98.48;101769.06;20868800;28;20128;-75
2022/07/22 10:50:50;;;;;;;0.80;0.70;;;;;;;19.27;98.36;101760.97;20809404;28;20050;-75
2022/07/22 11:00:51;;;;;;;0.97;0.70;;;;;;;19.24;98.07;101763.91;20768848;28;20143;-75
2022/07/22 11:10:53;;;;;;;0.70;0.60;;;;;;;19.27;98.23;101758.25;20825515;28;20095;-75
2022/07/22 11:20:55;;;;;;;1.50;0.90;;;;;;;19.18;97.95;101748.22;20842938;28;20064;-75
2022/07/22 11:31:08;;;;;;;1.48;0.70;;;;;;;19.28;97.80;101775.34;20801833;28;20375;-74
2022/07/22 11:41:10;;;;;;;0.60;0.60;;;;;;;19.04;97.79;101721.50;20803786;28;20413;-74
2022/07/22 11:51:14;;;;;;;0.50;0.50;;;;;;;19.21;97.56;101752.50;20830512;28;20132;-75
2022/07/22 12:01:27;;;;;;;0.98;0.60;;;;;;;19.27;97.53;101758.25;20842625;28;20053;-75
2022/07/22 12:11:29;;;;;;;1.95;0.63;;;;;;;19.26;97.32;101759.25;20838261;28;20091;-74
2022/07/22 12:21:37;;;;;;;1.05;0.70;;;;;;;19.27;97.45;101755.56;20804993;28;20067;-75
2022/07/22 12:31:59;;;;;;;0.93;0.60;;;;;;;19.27;97.31;101743.94;20783124;28;20052;-74
2022/07/22 12:42:01;;;;;;;1.02;0.70;;;;;;;19.26;97.37;101742.22;20793602;28;20041;-74
2022/07/22 12:52:08;;;;;;;1.15;0.75;;;;;;;19.27;97.38;101744.75;20766180;28;20063;-74
2022/07/22 13:02:10;;;;;;;2.80;0.70;;;;;;;19.27;97.41;101725.88;20834371;28;20081;-75
2022/07/22 13:12:11;;;;;;;1.20;0.70;;;;;;;19.27;97.32;101727.72;20844647;28;20057;-75
2022/07/22 13:22:13;;;;;;;0.73;0.50;;;;;;;19.27;97.31;101715.06;20862593;28;20045;-75
2022/07/22 13:32:15;;;;;;;1.65;0.70;;;;;;;19.27;97.24;101711.53;20844682;28;20091;-74
2022/07/22 13:42:28;;;;;;;2.63;0.60;;;;;;;19.04;96.92;101672.94;20866252;28;20501;-74
2022/07/22 13:52:30;;;;;;;0.55;0.50;;;;;;;19.27;97.15;101692.63;20864123;28;20097;-74
2022/07/22 14:02:32;;;;;;;0.57;0.57;;;;;;;19.07;96.96;101670.81;20786911;28;20057;-74
2022/07/22 14:12:33;;;;;;;0.90;0.50;;;;;;;19.25;97.09;101692.75;20773931;28;20132;-74
2022/07/22 14:22:35;;;;;;;1.45;0.68;;;;;;;19.26;96.80;101699.00;20792909;28;20145;-74
2022/07/22 14:32:37;;;;;;;0.60;0.50;;;;;;;19.01;96.81;101659.69;20825250;28;20051;-75
2022/07/22 14:42:38;;;;;;;4.07;1.35;;;;;;;19.27;96.48;101708.84;20790286;28;20045;-74
2022/07/22 14:52:40;;;;;;;1.15;0.50;;;;;;;19.28;95.93;101703.28;20797989;28;20054;-74
2022/07/22 15:02:42;;;;;;;1.85;0.70;;;;;;;19.28;95.78;101695.19;20779916;28;20554;-74
2022/07/22 15:12:43;;;;;;;0.80;0.63;;;;;;;19.27;95.65;101709.66;20808619;28;20064;-75
2022/07/22 15:22:50;;;;;;;0.55;0.50;;;;;;;19.28;95.73;101706.00;20857154;28;20136;-74
2022/07/22 15:32:51;;;;;;;0.82;0.50;;;;;;;19.27;95.71;101703.44;20841591;28;20041;-75
2022/07/22 15:42:53;;;;;;;2.38;0.70;;;;;;;19.27;95.63;101692.63;20805021;28;20057;-74
2022/07/22 15:52:54;;;;;;;0.57;0.55;;;;;;;19.27;95.55;101692.63;20772259;28;20469;-74
2022/07/22 16:02:56;;;;;;;1.08;0.55;;;;;;;19.19;95.59;101641.97;20744235;28;20688;-74
2022/07/22 16:12:58;;;;;;;1.42;0.50;;;;;;;19.26;95.17;101653.97;20773223;28;20418;-75
2022/07/22 16:22:59;;;;;;;0.68;0.40;;;;;;;19.26;95.37;101648.56;20841870;28;20493;-73
2022/07/22 16:33:01;;;;;;;1.08;0.80;;;;;;;19.28;95.61;101645.75;20797132;28;20059;-74
2022/07/22 16:43:02;;;;;;;0.77;0.57;;;;;;;19.06;95.67;101596.22;20763918;28;20076;-75
2022/07/22 16:53:04;;;;;;;1.20;0.80;;;;;;;19.28;96.13;101640.34;20788332;28;20059;-74
2022/07/22 17:03:07;;;;;;;1.67;0.93;;;;;;;19.23;96.34;101615.59;20847081;28;20052;-75
2022/07/22 17:13:08;;;;;;;0.70;0.60;;;;;;;19.28;96.38;101621.47;20831631;28;20040;-75
2022/07/22 17:23:30;;;;;;;1.45;0.80;;;;;;;19.27;96.44;101623.28;20833974;28;20057;-74
2022/07/22 17:33:32;;;;;;;1.08;0.50;;;;;;;19.28;96.48;101625.00;20832401;28;20509;-75
2022/07/22 17:43:33;;;;;;;0.70;0.52;;;;;;;19.28;96.38;101618.75;20857671;28;20118;-74
2022/07/22 17:53:35;;;;;;;0.85;0.50;;;;;;;19.24;96.57;101620.84;20843814;28;20433;-74
2022/07/22 18:03:36;;;;;;;1.00;0.68;;;;;;;19.28;96.31;101622.28;20844843;28;20049;-74
2022/07/22 18:13:38;;;;;;;0.98;0.70;;;;;;;19.27;96.50;101612.50;20858923;28;20040;-75
2022/07/22 18:23:39;;;;;;;3.42;0.95;;;;;;;19.28;96.32;101616.91;20866345;28;20045;-76
2022/07/22 18:33:41;;;;;;;0.95;0.60;;;;;;;19.27;95.80;101620.59;20874600;28;20077;-76
2022/07/22 18:43:43;;;;;;;1.67;0.63;;;;;;;19.29;95.42;101617.78;20890186;28;20075;-75
2022/07/22 18:53:44;;;;;;;1.58;0.77;;;;;;;19.20;95.00;101588.81;20891999;28;20064;-76
2022/07/22 19:03:46;;;;;;;0.88;0.60;;;;;;;19.31;94.98;101601.44;20891259;28;20045;-76
2022/07/22 19:13:48;;;;;;;0.73;0.57;;;;;;;19.31;94.92;101610.41;20890870;28;20136;-75
2022/07/22 19:23:49;;;;;;;0.55;0.40;;;;;;;19.31;94.80;101623.03;20888095;28;20159;-75
2022/07/22 19:33:51;;;;;;;0.47;0.47;;;;;;;19.31;94.63;101617.63;20887614;28;20098;-75
2022/07/22 19:43:53;;;;;;;1.20;0.70;;;;;;;19.27;94.62;101612.50;20885418;28;20044;-75
2022/07/22 19:53:55;;;;;;;0.80;0.50;;;;;;;19.30;94.58;101615.91;20887949;28;20041;-75
2022/07/22 20:03:57;;;;;;;1.00;0.52;;;;;;;19.31;94.38;101612.22;20886027;28;20067;-75
2022/07/22 20:13:59;;;;;;;1.25;0.60;;;;;;;19.28;94.40;101622.28;20885300;28;20131;-75
2022/07/22 20:24:02;;;;;;;0.63;0.60;;;;;;;19.26;94.54;101618.88;20885236;28;20133;-75
2022/07/22 20:34:03;;;;;;;2.33;0.63;;;;;;;19.16;94.64;101590.94;20881202;28;20497;-76
2022/07/22 20:44:05;;;;;;;0.50;0.50;;;;;;;19.27;94.61;101633.25;20883370;28;20049;-76
2022/07/22 20:54:07;;;;;;;0.68;0.57;;;;;;;19.27;94.58;101623.28;20882502;28;20103;-75
2022/07/22 21:04:08;;;;;;;0.80;0.68;;;;;;;19.15;94.66;101594.63;20881886;28;20044;-76
2022/07/22 21:14:10;;;;;;;0.77;0.40;;;;;;;19.27;94.70;101617.03;20880051;28;20402;-76
2022/07/22 21:24:11;;;;;;;0.63;0.50;;;;;;;19.25;94.67;101625.25;20880605;28;20102;-76
2022/07/22 21:34:13;;;;;;;1.35;0.60;;;;;;;19.24;94.60;101623.53;20880254;28;20059;-75
2022/07/22 21:44:14;;;;;;;0.73;0.50;;;;;;;19.25;94.66;101630.66;20884098;28;20040;-75
2022/07/22 21:54:16;;;;;;;0.38;0.32;;;;;;;19.13;94.77;101618.19;20896320;28;20094;-75
2022/07/22 22:04:18;;;;;;;0.73;0.52;;;;;;;19.24;94.70;101601.94;20895843;28;20040;-75
2022/07/22 22:14:20;;;;;;;0.40;0.40;;;;;;;19.24;94.58;101614.59;20894690;28;20044;-75
2022/07/22 22:24:22;;;;;;;0.50;0.40;;;;;;;19.24;94.50;101618.16;20894095;28;20067;-75
2022/07/22 22:34:23;;;;;;;0.57;0.45;;;;;;;19.22;94.61;101603.91;20893722;28;20045;-75
2022/07/22 22:44:25;;;;;;;0.70;0.57;;;;;;;19.23;94.20;101600.22;20892361;28;20136;-75
2022/07/22 22:54:27;;;;;;;0.85;0.68;;;;;;;18.62;94.21;101492.84;20889096;28;20509;-75
2022/07/22 23:04:28;;;;;;;0.70;0.55;;;;;;;19.21;94.13;101602.22;20891006;28;20049;-76
2022/07/22 23:14:30;;;;;;;0.65;0.50;;;;;;;19.21;94.00;101602.22;20889909;28;20056;-76
2022/07/22 23:24:31;;;;;;;0.50;0.50;;;;;;;19.21;94.04;101614.81;20889701;28;20099;-78
2022/07/22 23:34:33;;;;;;;0.50;0.43;;;;;;;19.07;93.85;101589.00;20888830;28;20056;-75
2022/07/22 23:44:35;;;;;;;0.40;0.40;;;;;;;19.19;93.88;101620.38;20887590;28;20064;-75
2022/07/22 23:54:36;;;;;;;1.35;0.70;;;;;;;19.20;93.72;101607.72;20887250;28;20045;-75
